Terminal Aerodrome Forecast
Issued by NWS Wakefield, VA

Home | Current Version | Previous Version | Text Only | Print | Product List | Glossary On
Versions: 1 2 3 4 5 6 7 8 9 10 11 12 13 14 15 16 17
000
FTUS41 KAKQ 292300
TAFECG
TAF
KECG 292336Z 3000/3024 19008KT P6SM SCT100 BKN250
     FM300800 23011KT P6SM BKN080
     FM301400 31015G24KT P6SM BKN060
     FM301800 32022G29KT P6SM BKN040
     FM302200 32017G25KT P6SM BKN040=

USA.gov is the U.S. government's official web portal to all federal, state and local government web resources and services.